Terminal Aerodrome Forecast
Issued by NWS

Home | Current Version | Previous Version | Text Only | Print | Product List | Glossary On
Versions: 1 2 3 4 5 6 7 8 9 10 11 12 13 14
000
FTUS44 KLIX 240500
TAFGPT
TAF
KGPT 240520Z 2406/2506 VRB02KT P6SM SKC
     FM240800 VRB03KT P6SM SCT020
      TEMPO 2409/2413 3SM BR
     FM241430 17009KT P6SM SCT035
     FM250100 18008KT P6SM SKC=

USA.gov is the U.S. government's official web portal to all federal, state and local government web resources and services.